Terminal Aerodrome Forecast
Issued by NWS

Home | Current Version | Previous Version | Text Only | Print | Product List | Glossary On
Versions: 1 2 3 4 5 6 7 8 9 10 11 12 13 14 15 16 17 18
000
FTUS44 KLIX 032339
TAFMCB
TAF
KMCB 032339Z 0400/0424 22010KT P6SM SCT040 BKN060
     FM040100 20005KT P6SM FEW060 BKN250
     FM040800 18003KT 4SM BR SCT010 BKN100
     FM041400 25006KT P6SM SCT030 BKN090
     FM042000 24007KT P6SM SCT035 BKN050
      TEMPO 0420/0424 2SM TSRA BKN030CB=

USA.gov is the U.S. government's official web portal to all federal, state and local government web resources and services.